Harrisburg, Arkansas
Current Conditions -  °F | °C
As of 1:53 AM on Saturday 25 Oct 2014 (Local Time) from KJBR Reporting Station
Clear Clear  
Wind Chill: 62°   Ceiling: Unl
Heat Index: 62°   Visibility: 10mi
Dew Point: 56°   Wind: 9mph
Humidity: 80%   Direction: 240°WSW
Pressure: 30.06"   Gusts: NA
Location:  35.56°N, 90.72°W
Report Text: KJBR 250653Z AUTO 24008KT 10SM CLR 17/13 A3006 RMK AO2 SLP177 T01670133
Loading
Personal Weather Stations






























Interactive Weather Map
Tropical Storm Tracking
New forecast layout! Learn more

10-Day Weather Forecast

Advertisements
Track Severe Weather on mobile